createdAt,value
2018-06-07T00:00:10.709Z,99.90
2018-06-07T00:02:39.217Z,99.90
2018-06-07T00:05:07.704Z,99.90
2018-06-07T00:07:36.044Z,99.90
2018-06-07T00:10:04.653Z,99.90
2018-06-07T00:12:33.048Z,99.90
2018-06-07T00:15:01.477Z,99.90
2018-06-07T00:17:29.861Z,99.90
2018-06-07T00:19:58.248Z,99.90
2018-06-07T00:22:26.636Z,99.90
2018-06-07T00:24:55.037Z,99.90
2018-06-07T00:27:23.437Z,99.90
2018-06-07T00:29:51.843Z,99.90
2018-06-07T00:32:20.232Z,99.90
2018-06-07T00:34:48.620Z,99.90
2018-06-07T00:37:17.025Z,99.90
2018-06-07T00:39:45.397Z,99.90
2018-06-07T00:42:13.811Z,99.90
2018-06-07T00:44:42.206Z,99.90
2018-06-07T00:47:10.616Z,99.90
2018-06-07T00:49:39.005Z,99.90
2018-06-07T00:52:07.410Z,99.90
2018-06-07T00:54:35.810Z,99.90
2018-06-07T00:57:08.320Z,99.90
2018-06-07T00:59:36.725Z,99.90
2018-06-07T01:02:05.600Z,99.90
2018-06-07T01:04:34.007Z,99.90
2018-06-07T01:07:02.427Z,99.90
2018-06-07T01:09:31.022Z,99.90
2018-06-07T01:11:59.404Z,99.90
2018-06-07T01:14:27.830Z,99.90
2018-06-07T01:16:56.403Z,99.90
2018-06-07T01:19:24.784Z,99.90
2018-06-07T01:21:53.180Z,99.90
2018-06-07T01:24:21.588Z,99.90
2018-06-07T01:26:49.972Z,99.90
2018-06-07T01:29:29.624Z,99.90
2018-06-07T01:34:14.152Z,99.90
2018-06-07T01:36:42.569Z,99.90
2018-06-07T01:39:13.784Z,99.90
2018-06-07T01:41:42.409Z,99.90
2018-06-07T01:44:10.817Z,99.90
2018-06-07T01:46:39.198Z,99.90
2018-06-07T01:49:07.777Z,99.90
2018-06-07T01:51:36.141Z,99.90
2018-06-07T01:54:04.540Z,99.90
2018-06-07T01:59:01.233Z,99.90
2018-06-07T02:01:29.609Z,99.90
2018-06-07T02:03:58.004Z,99.90
2018-06-07T02:06:26.428Z,99.90
2018-06-07T02:08:54.995Z,99.90
2018-06-07T02:11:23.425Z,99.90
2018-06-07T02:13:51.821Z,99.90
2018-06-07T02:16:20.228Z,99.90
2018-06-07T02:18:48.612Z,99.90
2018-06-07T02:21:17.013Z,99.90
2018-06-07T02:23:45.411Z,99.90
2018-06-07T02:26:13.829Z,99.90
2018-06-07T02:28:42.249Z,99.90
2018-06-07T02:31:10.656Z,99.90
2018-06-07T02:33:39.041Z,99.90
2018-06-07T02:36:07.423Z,99.90
2018-06-07T02:38:36.044Z,99.90
2018-06-07T02:41:04.436Z,99.90
2018-06-07T02:43:32.840Z,99.90
2018-06-07T02:46:01.945Z,99.90
2018-06-07T02:48:30.341Z,99.90
2018-06-07T02:50:58.724Z,99.90
2018-06-07T02:53:27.264Z,99.90
2018-06-07T02:55:55.757Z,99.90
2018-06-07T02:58:24.148Z,99.90
2018-06-07T03:00:52.825Z,99.90
2018-06-07T03:03:21.208Z,99.90
2018-06-07T03:05:49.576Z,99.90
2018-06-07T03:08:17.973Z,99.90
2018-06-07T03:10:46.351Z,99.90
2018-06-07T03:13:14.728Z,99.90
2018-06-07T03:15:43.132Z,99.90
2018-06-07T03:18:11.521Z,99.90
2018-06-07T03:20:39.916Z,99.90
2018-06-07T03:23:08.485Z,99.90
2018-06-07T03:25:36.877Z,99.90
2018-06-07T03:28:05.277Z,99.90
2018-06-07T03:30:33.916Z,99.90
2018-06-07T03:33:02.306Z,99.90
2018-06-07T03:35:30.700Z,99.90
2018-06-07T03:37:59.117Z,99.90
2018-06-07T03:40:27.504Z,99.90
2018-06-07T03:42:55.885Z,99.90
2018-06-07T03:45:24.493Z,99.90
2018-06-07T03:47:52.873Z,99.90
2018-06-07T03:50:21.253Z,99.90
2018-06-07T03:52:49.845Z,99.90
2018-06-07T03:55:18.300Z,99.90
2018-06-07T03:57:46.668Z,99.90
2018-06-07T04:00:15.086Z,99.90
2018-06-07T04:02:43.585Z,99.90
2018-06-07T04:05:11.965Z,99.90
2018-06-07T04:07:40.381Z,99.90
2018-06-07T04:10:08.779Z,99.90
2018-06-07T04:12:37.128Z,99.90
2018-06-07T04:15:05.548Z,99.90
2018-06-07T04:17:33.933Z,99.90
2018-06-07T04:20:02.313Z,99.90
2018-06-07T04:24:58.982Z,99.90
2018-06-07T04:27:27.384Z,99.90
2018-06-07T04:29:56.014Z,99.90
2018-06-07T04:32:24.384Z,99.90
2018-06-07T04:34:52.784Z,99.90
2018-06-07T04:37:21.471Z,99.90
2018-06-07T04:42:17.987Z,99.90
2018-06-07T04:44:46.390Z,99.90
2018-06-07T04:47:14.783Z,99.90
2018-06-07T04:49:43.296Z,99.90
2018-06-07T04:52:11.727Z,99.90
2018-06-07T04:54:40.152Z,99.90
2018-06-07T04:57:08.532Z,99.90
2018-06-07T04:59:36.977Z,99.90
2018-06-07T05:04:33.564Z,99.90
2018-06-07T05:07:02.082Z,99.90
2018-06-07T05:09:30.465Z,99.90
2018-06-07T05:11:58.849Z,99.90
2018-06-07T05:14:27.263Z,99.90
2018-06-07T05:16:55.672Z,99.90
2018-06-07T05:19:24.092Z,99.90
2018-06-07T05:24:20.581Z,99.90
2018-06-07T05:26:48.993Z,99.90
2018-06-07T05:29:17.624Z,99.90
2018-06-07T05:31:46.030Z,99.90
2018-06-07T05:34:14.460Z,99.90
2018-06-07T05:36:42.877Z,99.90
2018-06-07T05:39:11.637Z,99.90
2018-06-07T05:41:40.127Z,99.90
2018-06-07T05:44:08.788Z,99.90
2018-06-07T05:46:37.176Z,99.90
2018-06-07T05:49:05.833Z,99.90
2018-06-07T05:51:34.405Z,99.90
2018-06-07T05:54:02.806Z,99.90
2018-06-07T05:56:31.228Z,99.90
2018-06-07T05:58:59.627Z,99.90
2018-06-07T06:01:28.323Z,99.90
2018-06-07T06:03:56.789Z,99.90
2018-06-07T06:06:25.414Z,99.90
2018-06-07T06:08:53.929Z,99.90
2018-06-07T06:11:22.396Z,99.90
2018-06-07T06:13:50.960Z,99.90
2018-06-07T06:16:19.373Z,99.90
2018-06-07T06:18:47.748Z,99.90
2018-06-07T06:21:16.436Z,99.90
2018-06-07T06:23:44.805Z,99.90
2018-06-07T06:26:13.202Z,99.90
2018-06-07T06:28:41.704Z,99.90
2018-06-07T06:31:10.109Z,99.90
2018-06-07T06:33:38.529Z,99.90
2018-06-07T06:36:07.670Z,99.90
2018-06-07T06:38:37.853Z,99.90
2018-06-07T06:41:06.289Z,99.90
2018-06-07T06:43:34.672Z,99.90
2018-06-07T06:46:03.221Z,99.90
2018-06-07T06:48:31.632Z,99.90
2018-06-07T06:51:00.015Z,99.90
2018-06-07T06:53:28.445Z,99.90
2018-06-07T06:55:56.839Z,99.90
2018-06-07T06:58:25.221Z,99.90
2018-06-07T07:00:53.636Z,99.90
2018-06-07T07:05:50.188Z,99.90
2018-06-07T07:08:18.584Z,99.90
2018-06-07T07:10:46.996Z,99.90
2018-06-07T07:13:15.439Z,99.90
2018-06-07T07:15:43.807Z,99.90
2018-06-07T07:18:12.367Z,99.90
2018-06-07T07:23:08.879Z,99.90
2018-06-07T07:25:37.369Z,99.90
2018-06-07T07:28:05.784Z,99.90
2018-06-07T07:30:34.192Z,99.90
2018-06-07T07:33:02.635Z,99.90
2018-06-07T07:35:31.021Z,99.90
2018-06-07T07:40:27.783Z,99.90
2018-06-07T07:45:24.274Z,99.90
2018-06-07T07:47:52.901Z,99.90
2018-06-07T07:50:21.311Z,99.90
2018-06-07T07:52:49.704Z,99.90
2018-06-07T07:55:18.120Z,99.90
2018-06-07T07:57:46.520Z,99.90
2018-06-07T08:02:43.382Z,99.90
2018-06-07T08:05:11.793Z,99.90
2018-06-07T08:07:40.166Z,99.90
2018-06-07T08:10:08.585Z,99.90
2018-06-07T08:12:36.984Z,99.90
2018-06-07T08:15:05.403Z,99.90
2018-06-07T08:17:34.263Z,99.90
2018-06-07T08:20:02.797Z,99.90
2018-06-07T08:22:31.193Z,99.90
2018-06-07T08:24:59.688Z,99.90
2018-06-07T08:27:28.144Z,99.90
2018-06-07T08:29:56.554Z,99.90
2018-06-07T08:32:25.180Z,99.90
2018-06-07T08:34:53.573Z,99.90
2018-06-07T08:37:21.987Z,99.90
2018-06-07T08:39:50.557Z,99.90
2018-06-07T08:42:18.986Z,99.90
2018-06-07T08:44:47.482Z,99.90
2018-06-07T08:47:16.116Z,99.90
2018-06-07T08:49:44.490Z,99.90
2018-06-07T08:52:13.006Z,99.90
2018-06-07T08:54:45.647Z,99.90
2018-06-07T08:57:14.053Z,99.90
2018-06-07T08:59:42.460Z,99.90
2018-06-07T09:02:10.848Z,99.90
2018-06-07T09:04:39.257Z,99.90
2018-06-07T09:07:07.860Z,99.90
2018-06-07T09:09:36.232Z,99.90
2018-06-07T09:12:04.764Z,99.90
2018-06-07T09:14:33.216Z,99.90
2018-06-07T09:17:01.615Z,99.90
2018-06-07T09:19:30.135Z,99.90
2018-06-07T09:21:58.441Z,99.90
2018-06-07T09:24:26.864Z,99.90
2018-06-07T09:26:55.485Z,99.90
2018-06-07T09:29:23.857Z,99.90
2018-06-07T09:31:52.252Z,99.90
2018-06-07T09:34:20.662Z,99.90
2018-06-07T09:36:49.044Z,99.90
2018-06-07T09:39:17.434Z,99.90
2018-06-07T09:41:45.884Z,99.90
2018-06-07T09:44:14.265Z,99.90
2018-06-07T09:46:42.677Z,99.90
2018-06-07T09:49:11.082Z,99.90
2018-06-07T09:51:39.477Z,99.90
2018-06-07T09:54:08.159Z,99.90
2018-06-07T09:56:36.540Z,99.90
2018-06-07T09:59:04.939Z,99.90
2018-06-07T10:01:33.408Z,99.90
2018-06-07T10:04:01.808Z,99.90
2018-06-07T10:06:30.200Z,99.90
2018-06-07T10:08:58.737Z,99.90
2018-06-07T10:11:27.162Z,99.90
2018-06-07T10:13:55.538Z,99.90
2018-06-07T10:16:23.972Z,99.90
2018-06-07T10:18:52.361Z,99.90
2018-06-07T10:21:20.920Z,99.90
2018-06-07T10:23:49.316Z,99.90
2018-06-07T10:26:17.761Z,99.90
2018-06-07T10:28:46.360Z,99.90
2018-06-07T10:31:14.775Z,99.90
2018-06-07T10:33:43.173Z,99.90
2018-06-07T10:36:11.811Z,99.90
2018-06-07T10:38:40.453Z,99.90
2018-06-07T10:41:09.363Z,99.90
2018-06-07T10:43:37.847Z,99.90
2018-06-07T10:46:06.249Z,99.90
2018-06-07T10:48:34.644Z,99.90
2018-06-07T10:51:03.298Z,99.90
2018-06-07T10:53:31.783Z,99.90
2018-06-07T10:56:01.433Z,99.90
2018-06-07T10:58:29.996Z,99.90
2018-06-07T11:00:58.463Z,99.90
2018-06-07T11:03:26.887Z,99.90
2018-06-07T11:05:55.536Z,99.90
2018-06-07T11:10:52.084Z,99.90
2018-06-07T11:15:48.920Z,99.90
2018-06-07T11:18:17.465Z,99.90
2018-06-07T11:20:45.883Z,99.90
2018-06-07T11:23:14.311Z,99.90
2018-06-07T11:25:42.719Z,99.90
2018-06-07T11:28:11.329Z,99.90
2018-06-07T11:30:39.744Z,99.80
2018-06-07T11:33:08.144Z,99.10
2018-06-07T11:35:36.592Z,98.30
2018-06-07T11:38:04.974Z,98.30
2018-06-07T11:40:33.413Z,97.70
2018-06-07T11:43:01.825Z,98.10
2018-06-07T11:45:30.376Z,98.50
2018-06-07T11:47:58.748Z,97.80
2018-06-07T11:50:27.317Z,97.10
2018-06-07T11:52:55.702Z,98.10
2018-06-07T11:55:24.160Z,98.60
2018-06-07T11:57:52.727Z,98.20
2018-06-07T12:00:21.134Z,98.90
2018-06-07T12:02:49.529Z,97.70
2018-06-07T12:05:17.964Z,97.00
2018-06-07T12:07:46.372Z,96.50
2018-06-07T12:10:15.027Z,96.20
2018-06-07T12:12:43.404Z,96.10
2018-06-07T12:15:11.805Z,96.20
2018-06-07T12:17:40.412Z,95.70
2018-06-07T12:20:08.849Z,96.80
2018-06-07T12:22:37.361Z,96.30
2018-06-07T12:25:06.327Z,97.90
2018-06-07T12:27:34.732Z,96.00
2018-06-07T12:30:03.205Z,96.00
2018-06-07T12:32:31.807Z,96.10
2018-06-07T12:35:00.194Z,96.40
2018-06-07T12:37:28.744Z,97.20
2018-06-07T12:39:57.446Z,96.90
2018-06-07T12:42:25.689Z,96.60
2018-06-07T12:44:54.104Z,96.90
2018-06-07T12:47:22.530Z,95.20
2018-06-07T12:49:51.032Z,95.10
2018-06-07T12:52:19.724Z,95.50
2018-06-07T12:54:48.127Z,94.60
2018-06-07T12:57:16.524Z,94.50
2018-06-07T12:59:45.097Z,95.90
2018-06-07T13:02:13.513Z,95.80
2018-06-07T13:04:41.925Z,95.00
2018-06-07T13:07:10.320Z,95.50
2018-06-07T13:09:38.704Z,96.20
2018-06-07T13:12:07.416Z,96.00
2018-06-07T13:14:35.880Z,96.80
2018-06-07T13:17:04.283Z,96.90
2018-06-07T13:19:32.733Z,97.80
2018-06-07T13:22:01.308Z,98.20
2018-06-07T13:24:29.713Z,97.90
2018-06-07T13:26:58.115Z,97.00
2018-06-07T13:29:26.521Z,96.80
2018-06-07T13:31:54.911Z,97.70
2018-06-07T13:34:23.316Z,97.30
2018-06-07T13:36:51.823Z,97.40
2018-06-07T13:39:20.239Z,99.10
2018-06-07T13:41:48.704Z,98.80
2018-06-07T13:44:17.149Z,98.00
2018-06-07T13:46:45.575Z,97.10
2018-06-07T13:49:14.013Z,96.80
2018-06-07T13:51:42.428Z,96.50
2018-06-07T13:54:10.851Z,96.50
2018-06-07T13:59:07.687Z,97.70
2018-06-07T14:01:36.092Z,97.20
2018-06-07T14:04:04.505Z,96.30
2018-06-07T14:06:32.913Z,95.80
2018-06-07T14:09:01.516Z,96.70
2018-06-07T14:11:29.940Z,97.00
2018-06-07T14:13:58.356Z,98.10
2018-06-07T14:16:26.952Z,98.90
2018-06-07T14:18:55.377Z,99.20
2018-06-07T14:21:24.001Z,98.90
2018-06-07T14:23:52.428Z,99.50
2018-06-07T14:26:20.833Z,99.30
2018-06-07T14:28:49.265Z,99.50
2018-06-07T14:31:17.757Z,99.30
2018-06-07T14:33:46.180Z,99.50
2018-06-07T14:36:14.732Z,99.20
2018-06-07T14:38:43.385Z,99.60
2018-06-07T14:41:12.108Z,99.80
2018-06-07T14:43:40.198Z,99.90
2018-06-07T14:46:08.602Z,99.90
2018-06-07T14:48:37.024Z,99.20
2018-06-07T14:51:05.440Z,98.60
2018-06-07T14:53:33.909Z,98.20
2018-06-07T14:56:02.400Z,98.60
2018-06-07T14:58:30.896Z,97.80
2018-06-07T15:00:59.650Z,97.40
2018-06-07T15:03:28.560Z,98.50
2018-06-07T15:05:57.039Z,99.00
2018-06-07T15:08:25.436Z,99.50
2018-06-07T15:10:53.824Z,99.70
2018-06-07T15:13:22.232Z,99.70
2018-06-07T15:15:50.888Z,98.80
2018-06-07T15:18:19.328Z,99.30
2018-06-07T15:20:47.904Z,99.40
2018-06-07T15:23:16.472Z,99.50
2018-06-07T15:25:44.865Z,99.40
2018-06-07T15:28:13.251Z,99.80
2018-06-07T15:30:41.805Z,99.90
2018-06-07T15:33:10.222Z,99.90
2018-06-07T15:35:38.715Z,99.90
2018-06-07T15:38:07.099Z,99.90
2018-06-07T15:40:35.545Z,99.90
2018-06-07T15:43:03.957Z,99.90
2018-06-07T15:45:32.400Z,99.90
2018-06-07T15:48:00.785Z,99.90
2018-06-07T15:50:29.209Z,99.90
2018-06-07T15:52:57.631Z,99.90
2018-06-07T15:55:26.093Z,99.90
2018-06-07T15:57:54.506Z,99.70
2018-06-07T16:00:22.913Z,99.20
2018-06-07T16:02:51.354Z,99.20
2018-06-07T16:05:19.784Z,99.50
2018-06-07T16:07:48.172Z,99.90
2018-06-07T16:10:16.608Z,99.70
2018-06-07T16:12:45.105Z,99.80
2018-06-07T16:15:13.512Z,99.50
2018-06-07T16:17:41.932Z,99.60
2018-06-07T16:20:10.434Z,99.90
2018-06-07T16:22:38.819Z,99.60
2018-06-07T16:25:07.220Z,99.70
2018-06-07T16:27:35.797Z,99.20
2018-06-07T16:30:04.704Z,99.60
2018-06-07T16:35:01.193Z,98.60
2018-06-07T16:37:29.655Z,98.30
2018-06-07T16:39:58.402Z,97.90
2018-06-07T16:42:26.812Z,97.10
2018-06-07T16:44:55.217Z,96.90
2018-06-07T16:47:23.628Z,96.60
2018-06-07T16:49:52.058Z,96.80
2018-06-07T16:52:20.490Z,97.40
2018-06-07T16:54:48.942Z,97.30
2018-06-07T16:57:17.727Z,97.30
2018-06-07T16:59:46.378Z,96.80
2018-06-07T17:04:43.036Z,97.10
2018-06-07T17:07:11.460Z,98.50
2018-06-07T17:09:39.857Z,99.60
2018-06-07T17:12:08.278Z,99.90
2018-06-07T17:14:36.913Z,99.90
2018-06-07T17:17:05.485Z,99.90
2018-06-07T17:19:33.899Z,99.90
2018-06-07T17:22:02.572Z,99.90
2018-06-07T17:24:30.956Z,99.90
2018-06-07T17:26:59.560Z,99.90
2018-06-07T17:29:28.118Z,99.90
2018-06-07T17:31:56.558Z,99.90
2018-06-07T17:34:25.002Z,99.90
2018-06-07T17:36:53.389Z,99.90
2018-06-07T17:39:21.797Z,99.90
2018-06-07T17:41:50.248Z,99.90
2018-06-07T17:44:18.800Z,99.90
2018-06-07T17:46:47.293Z,99.90
2018-06-07T17:49:15.725Z,99.90
2018-06-07T17:51:44.320Z,99.90
2018-06-07T17:54:12.724Z,99.90
2018-06-07T17:56:41.180Z,99.90
2018-06-07T17:59:09.759Z,99.90
2018-06-07T18:01:38.296Z,99.90
2018-06-07T18:04:06.820Z,99.90
2018-06-07T18:06:35.241Z,99.90
2018-06-07T18:09:03.906Z,99.90
2018-06-07T18:11:32.368Z,99.90
2018-06-07T18:14:00.981Z,99.90
2018-06-07T18:16:29.414Z,99.90
2018-06-07T18:18:58.051Z,99.90
2018-06-07T18:21:26.496Z,99.90
2018-06-07T18:23:54.889Z,99.90
2018-06-07T18:26:23.337Z,99.90
2018-06-07T18:28:51.937Z,99.90
2018-06-07T18:31:20.399Z,99.90
2018-06-07T18:33:48.922Z,99.90
2018-06-07T18:36:17.629Z,99.90
2018-06-07T18:38:46.036Z,99.90
2018-06-07T18:41:14.809Z,99.90
2018-06-07T18:43:43.392Z,99.90
2018-06-07T18:46:11.820Z,99.90
2018-06-07T18:48:40.397Z,99.90
2018-06-07T18:51:08.918Z,99.90
2018-06-07T18:53:37.457Z,99.90
2018-06-07T18:56:06.666Z,99.90
2018-06-07T18:58:35.473Z,99.90
2018-06-07T19:01:03.965Z,99.90
2018-06-07T19:03:32.470Z,99.90
2018-06-07T19:06:00.962Z,99.90
2018-06-07T19:08:33.601Z,99.90
2018-06-07T19:11:02.112Z,99.90
2018-06-07T19:13:35.935Z,99.90
2018-06-07T19:16:04.585Z,99.90
2018-06-07T19:18:33.115Z,99.90
2018-06-07T19:21:01.695Z,99.90
2018-06-07T19:23:30.432Z,99.90
2018-06-07T19:26:04.280Z,99.90
2018-06-07T19:28:33.096Z,99.90
2018-06-07T19:31:01.561Z,99.90
2018-06-07T19:33:35.408Z,99.90
2018-06-07T19:36:03.914Z,99.90
2018-06-07T19:38:32.465Z,99.90
2018-06-07T19:41:06.424Z,99.90
2018-06-07T19:43:34.812Z,99.90
2018-06-07T19:46:03.341Z,99.90
2018-06-07T19:48:31.790Z,99.90
2018-06-07T19:51:00.248Z,99.90
2018-06-07T19:53:28.632Z,99.90
2018-06-07T19:55:57.068Z,99.90
2018-06-07T19:58:25.511Z,99.90
2018-06-07T20:00:53.988Z,99.90
2018-06-07T20:03:22.674Z,99.90
2018-06-07T20:05:51.256Z,99.90
2018-06-07T20:08:19.700Z,99.90
2018-06-07T20:10:48.214Z,99.90
2018-06-07T20:13:16.657Z,99.90
2018-06-07T20:15:45.060Z,99.90
2018-06-07T20:18:13.497Z,99.90
2018-06-07T20:20:41.949Z,99.90
2018-06-07T20:23:10.620Z,99.90
2018-06-07T20:25:39.018Z,99.90
2018-06-07T20:28:07.433Z,99.90
2018-06-07T20:30:36.050Z,99.90
2018-06-07T20:33:04.477Z,99.90
2018-06-07T20:35:32.904Z,99.90
2018-06-07T20:38:01.390Z,99.90
2018-06-07T20:40:29.804Z,99.90
2018-06-07T20:42:58.208Z,99.90
2018-06-07T20:45:26.675Z,99.90
2018-06-07T20:47:55.112Z,99.90
2018-06-07T20:50:23.591Z,99.90
2018-06-07T20:52:52.153Z,99.90
2018-06-07T20:55:20.579Z,99.90
2018-06-07T20:57:48.972Z,99.90
2018-06-07T21:00:17.376Z,99.90
2018-06-07T21:02:45.783Z,99.90
2018-06-07T21:05:14.372Z,99.90
2018-06-07T21:07:42.724Z,99.90
2018-06-07T21:10:11.170Z,99.90
2018-06-07T21:12:39.791Z,99.90
2018-06-07T21:15:08.178Z,99.90
2018-06-07T21:17:36.571Z,99.90
2018-06-07T21:20:05.041Z,99.90
2018-06-07T21:22:33.458Z,99.90
2018-06-07T21:25:01.877Z,99.90
2018-06-07T21:27:30.441Z,99.90
2018-06-07T21:29:58.847Z,99.90
2018-06-07T21:32:27.278Z,99.90
2018-06-07T21:34:55.756Z,99.90
2018-06-07T21:37:24.162Z,99.90
2018-06-07T21:39:52.688Z,99.90
2018-06-07T21:42:21.453Z,99.90
2018-06-07T21:44:49.882Z,99.90
2018-06-07T21:47:18.416Z,99.90
2018-06-07T21:49:47.005Z,99.90
2018-06-07T21:52:15.389Z,99.90
2018-06-07T21:54:43.784Z,99.90
2018-06-07T21:57:12.428Z,99.90
2018-06-07T21:59:41.892Z,99.90
2018-06-07T22:02:10.297Z,99.90
2018-06-07T22:04:38.716Z,99.90
2018-06-07T22:07:07.201Z,99.90
2018-06-07T22:09:35.625Z,99.90
2018-06-07T22:12:04.356Z,99.90
2018-06-07T22:14:32.741Z,99.90
2018-06-07T22:17:01.252Z,99.90
2018-06-07T22:19:29.888Z,99.90
2018-06-07T22:21:58.284Z,99.90
2018-06-07T22:24:26.705Z,99.90
2018-06-07T22:26:55.538Z,99.90
2018-06-07T22:29:23.953Z,99.90
2018-06-07T22:31:52.336Z,99.90
2018-06-07T22:34:21.076Z,99.90
2018-06-07T22:36:49.528Z,99.90
2018-06-07T22:39:17.960Z,99.90
2018-06-07T22:41:46.345Z,99.90
2018-06-07T22:44:14.773Z,99.90
2018-06-07T22:46:43.251Z,99.90
2018-06-07T22:49:11.641Z,99.90
2018-06-07T22:51:40.053Z,99.90
2018-06-07T22:56:36.786Z,99.90
2018-06-07T22:59:05.358Z,99.90
2018-06-07T23:01:33.799Z,99.90
2018-06-07T23:04:02.217Z,99.90
2018-06-07T23:06:30.653Z,99.90
2018-06-07T23:08:59.106Z,99.90
2018-06-07T23:11:27.529Z,99.90
2018-06-07T23:13:55.913Z,99.90
2018-06-07T23:16:24.320Z,99.90
2018-06-07T23:18:52.743Z,99.90
2018-06-07T23:21:21.117Z,99.90
2018-06-07T23:23:49.517Z,99.90
2018-06-07T23:26:20.840Z,99.90
2018-06-07T23:28:49.232Z,99.90
2018-06-07T23:31:17.956Z,99.90
2018-06-07T23:33:46.457Z,99.90
2018-06-07T23:36:14.888Z,99.90
2018-06-07T23:38:43.273Z,99.90
2018-06-07T23:41:11.732Z,99.90
2018-06-07T23:43:40.140Z,99.90
2018-06-07T23:46:08.525Z,99.90
2018-06-07T23:48:37.211Z,99.90
2018-06-07T23:51:05.620Z,99.90
2018-06-07T23:53:34.001Z,99.90
2018-06-07T23:56:02.562Z,99.90
2018-06-07T23:58:30.988Z,99.90
